sensor_id;sensor_type;location;lat;lon;timestamp;temperature;humidity
4934;DHT22;2482;49.154;8.254;2023-08-30T00:01:23;15.40;99.90
4934;DHT22;2482;49.154;8.254;2023-08-30T00:03:50;15.40;99.90
4934;DHT22;2482;49.154;8.254;2023-08-30T00:06:17;15.40;99.90
4934;DHT22;2482;49.154;8.254;2023-08-30T00:08:45;15.40;99.90
4934;DHT22;2482;49.154;8.254;2023-08-30T00:11:13;15.30;99.90
4934;DHT22;2482;49.154;8.254;2023-08-30T00:13:41;15.40;99.90
4934;DHT22;2482;49.154;8.254;2023-08-30T00:16:09;15.40;99.90
4934;DHT22;2482;49.154;8.254;2023-08-30T00:18:36;15.40;99.90
4934;DHT22;2482;49.154;8.254;2023-08-30T00:21:03;15.50;99.90
4934;DHT22;2482;49.154;8.254;2023-08-30T00:23:29;15.40;99.90
4934;DHT22;2482;49.154;8.254;2023-08-30T00:25:57;15.30;99.90
4934;DHT22;2482;49.154;8.254;2023-08-30T00:28:23;15.30;99.90
4934;DHT22;2482;49.154;8.254;2023-08-30T00:30:54;15.30;99.90
4934;DHT22;2482;49.154;8.254;2023-08-30T00:33:22;15.40;99.90
4934;DHT22;2482;49.154;8.254;2023-08-30T00:35:56;15.30;99.90
4934;DHT22;2482;49.154;8.254;2023-08-30T00:38:25;15.30;99.90
4934;DHT22;2482;49.154;8.254;2023-08-30T00:40:52;15.30;99.90
4934;DHT22;2482;49.154;8.254;2023-08-30T00:43:20;15.30;99.90
4934;DHT22;2482;49.154;8.254;2023-08-30T00:45:47;15.40;99.90
4934;DHT22;2482;49.154;8.254;2023-08-30T00:48:16;15.40;99.90
4934;DHT22;2482;49.154;8.254;2023-08-30T00:50:45;15.40;99.90
4934;DHT22;2482;49.154;8.254;2023-08-30T00:53:12;15.30;99.90
4934;DHT22;2482;49.154;8.254;2023-08-30T00:55:41;15.40;99.90
4934;DHT22;2482;49.154;8.254;2023-08-30T00:58:09;15.40;99.90
4934;DHT22;2482;49.154;8.254;2023-08-30T01:00:38;15.30;99.90
4934;DHT22;2482;49.154;8.254;2023-08-30T01:03:06;15.40;99.90
4934;DHT22;2482;49.154;8.254;2023-08-30T01:05:34;15.40;99.90
4934;DHT22;2482;49.154;8.254;2023-08-30T01:08:02;15.30;99.90
4934;DHT22;2482;49.154;8.254;2023-08-30T01:13:27;15.30;99.90
4934;DHT22;2482;49.154;8.254;2023-08-30T01:15:58;15.40;99.90
4934;DHT22;2482;49.154;8.254;2023-08-30T01:18:32;15.40;99.90
4934;DHT22;2482;49.154;8.254;2023-08-30T01:21:02;15.30;99.90
4934;DHT22;2482;49.154;8.254;2023-08-30T01:23:49;15.10;99.90
4934;DHT22;2482;49.154;8.254;2023-08-30T01:26:36;15.10;99.90
4934;DHT22;2482;49.154;8.254;2023-08-30T01:29:09;15.10;99.90
4934;DHT22;2482;49.154;8.254;2023-08-30T01:31:39;15.20;99.90
4934;DHT22;2482;49.154;8.254;2023-08-30T01:34:07;15.20;99.90
4934;DHT22;2482;49.154;8.254;2023-08-30T01:36:35;15.20;99.90
4934;DHT22;2482;49.154;8.254;2023-08-30T01:39:02;15.20;99.90
4934;DHT22;2482;49.154;8.254;2023-08-30T01:41:32;15.20;99.90
4934;DHT22;2482;49.154;8.254;2023-08-30T01:44:00;15.20;99.90
4934;DHT22;2482;49.154;8.254;2023-08-30T01:46:32;15.20;99.90
4934;DHT22;2482;49.154;8.254;2023-08-30T01:49:02;15.20;99.90
4934;DHT22;2482;49.154;8.254;2023-08-30T01:51:29;15.20;99.90
4934;DHT22;2482;49.154;8.254;2023-08-30T01:53:57;15.20;99.90
4934;DHT22;2482;49.154;8.254;2023-08-30T01:56:25;15.20;99.90
4934;DHT22;2482;49.154;8.254;2023-08-30T01:58:51;15.20;99.90
4934;DHT22;2482;49.154;8.254;2023-08-30T02:01:19;15.20;99.90
4934;DHT22;2482;49.154;8.254;2023-08-30T02:03:45;15.20;99.90
4934;DHT22;2482;49.154;8.254;2023-08-30T02:06:24;15.20;99.90
4934;DHT22;2482;49.154;8.254;2023-08-30T02:08:58;15.20;99.90
4934;DHT22;2482;49.154;8.254;2023-08-30T02:11:31;15.20;99.90
4934;DHT22;2482;49.154;8.254;2023-08-30T02:14:00;15.30;99.90
4934;DHT22;2482;49.154;8.254;2023-08-30T02:16:28;15.30;99.90
4934;DHT22;2482;49.154;8.254;2023-08-30T02:18:56;15.20;99.90
4934;DHT22;2482;49.154;8.254;2023-08-30T02:21:24;15.20;99.90
4934;DHT22;2482;49.154;8.254;2023-08-30T02:23:51;15.10;99.90
4934;DHT22;2482;49.154;8.254;2023-08-30T02:26:19;15.10;99.90
4934;DHT22;2482;49.154;8.254;2023-08-30T02:28:46;15.10;99.90
4934;DHT22;2482;49.154;8.254;2023-08-30T02:31:14;15.10;99.90
4934;DHT22;2482;49.154;8.254;2023-08-30T02:33:41;15.10;99.90
4934;DHT22;2482;49.154;8.254;2023-08-30T02:36:08;15.00;99.90
4934;DHT22;2482;49.154;8.254;2023-08-30T02:38:35;15.10;99.90
4934;DHT22;2482;49.154;8.254;2023-08-30T02:41:02;15.10;99.90
4934;DHT22;2482;49.154;8.254;2023-08-30T02:43:29;15.10;99.90
4934;DHT22;2482;49.154;8.254;2023-08-30T02:45:56;15.00;99.90
4934;DHT22;2482;49.154;8.254;2023-08-30T02:48:23;15.00;99.90
4934;DHT22;2482;49.154;8.254;2023-08-30T02:50:50;15.00;99.90
4934;DHT22;2482;49.154;8.254;2023-08-30T02:53:17;15.10;99.90
4934;DHT22;2482;49.154;8.254;2023-08-30T02:55:44;15.10;99.90
4934;DHT22;2482;49.154;8.254;2023-08-30T02:58:13;15.10;99.90
4934;DHT22;2482;49.154;8.254;2023-08-30T03:00:41;15.10;99.90
4934;DHT22;2482;49.154;8.254;2023-08-30T03:03:08;15.00;99.90
4934;DHT22;2482;49.154;8.254;2023-08-30T03:05:35;15.10;99.90
4934;DHT22;2482;49.154;8.254;2023-08-30T03:08:02;15.10;99.90
4934;DHT22;2482;49.154;8.254;2023-08-30T03:10:29;15.10;99.90
4934;DHT22;2482;49.154;8.254;2023-08-30T03:12:56;15.20;99.90
4934;DHT22;2482;49.154;8.254;2023-08-30T03:15:23;15.10;99.90
4934;DHT22;2482;49.154;8.254;2023-08-30T03:17:50;15.00;99.90
4934;DHT22;2482;49.154;8.254;2023-08-30T03:20:17;15.00;99.90
4934;DHT22;2482;49.154;8.254;2023-08-30T03:22:44;15.00;99.90
4934;DHT22;2482;49.154;8.254;2023-08-30T03:25:11;15.00;99.90
4934;DHT22;2482;49.154;8.254;2023-08-30T03:27:38;15.00;99.90
4934;DHT22;2482;49.154;8.254;2023-08-30T03:30:05;14.90;99.90
4934;DHT22;2482;49.154;8.254;2023-08-30T03:32:33;14.90;99.90
4934;DHT22;2482;49.154;8.254;2023-08-30T03:35:00;14.90;99.90
4934;DHT22;2482;49.154;8.254;2023-08-30T03:37:27;14.90;99.90
4934;DHT22;2482;49.154;8.254;2023-08-30T03:39:54;15.00;99.90
4934;DHT22;2482;49.154;8.254;2023-08-30T03:42:21;15.00;99.90
4934;DHT22;2482;49.154;8.254;2023-08-30T03:44:48;14.90;99.90
4934;DHT22;2482;49.154;8.254;2023-08-30T03:47:15;15.00;99.90
4934;DHT22;2482;49.154;8.254;2023-08-30T03:49:43;15.00;99.90
4934;DHT22;2482;49.154;8.254;2023-08-30T03:52:10;15.00;99.90
4934;DHT22;2482;49.154;8.254;2023-08-30T03:54:37;15.00;99.90
4934;DHT22;2482;49.154;8.254;2023-08-30T03:57:04;14.90;99.90
4934;DHT22;2482;49.154;8.254;2023-08-30T03:59:31;14.90;99.90
4934;DHT22;2482;49.154;8.254;2023-08-30T04:01:59;14.80;99.90
4934;DHT22;2482;49.154;8.254;2023-08-30T04:04:27;14.80;99.90
4934;DHT22;2482;49.154;8.254;2023-08-30T04:06:54;14.80;99.90
4934;DHT22;2482;49.154;8.254;2023-08-30T04:09:21;14.90;99.90
4934;DHT22;2482;49.154;8.254;2023-08-30T04:11:48;15.00;99.90
4934;DHT22;2482;49.154;8.254;2023-08-30T04:14:15;15.00;99.90
4934;DHT22;2482;49.154;8.254;2023-08-30T04:16:42;14.90;99.90
4934;DHT22;2482;49.154;8.254;2023-08-30T04:19:09;14.80;99.90
4934;DHT22;2482;49.154;8.254;2023-08-30T04:21:36;14.70;99.90
4934;DHT22;2482;49.154;8.254;2023-08-30T04:24:03;14.70;99.90
4934;DHT22;2482;49.154;8.254;2023-08-30T04:26:30;14.70;99.90
4934;DHT22;2482;49.154;8.254;2023-08-30T04:28:57;14.70;99.90
4934;DHT22;2482;49.154;8.254;2023-08-30T04:31:24;14.70;99.90
4934;DHT22;2482;49.154;8.254;2023-08-30T04:33:51;14.60;99.90
4934;DHT22;2482;49.154;8.254;2023-08-30T04:36:21;14.60;99.90
4934;DHT22;2482;49.154;8.254;2023-08-30T04:38:49;14.60;99.90
4934;DHT22;2482;49.154;8.254;2023-08-30T04:41:28;14.60;99.90
4934;DHT22;2482;49.154;8.254;2023-08-30T04:43:55;14.60;99.90
4934;DHT22;2482;49.154;8.254;2023-08-30T04:46:22;14.60;99.90
4934;DHT22;2482;49.154;8.254;2023-08-30T04:48:49;14.70;99.90
4934;DHT22;2482;49.154;8.254;2023-08-30T04:51:17;14.70;99.90
4934;DHT22;2482;49.154;8.254;2023-08-30T04:53:44;14.70;99.90
4934;DHT22;2482;49.154;8.254;2023-08-30T04:56:14;14.70;99.90
4934;DHT22;2482;49.154;8.254;2023-08-30T04:58:41;14.70;99.90
4934;DHT22;2482;49.154;8.254;2023-08-30T05:01:09;14.70;99.90
4934;DHT22;2482;49.154;8.254;2023-08-30T05:03:36;14.70;99.90
4934;DHT22;2482;49.154;8.254;2023-08-30T05:06:03;14.80;99.90
4934;DHT22;2482;49.154;8.254;2023-08-30T05:08:30;14.70;99.90
4934;DHT22;2482;49.154;8.254;2023-08-30T05:10:58;14.70;99.90
4934;DHT22;2482;49.154;8.254;2023-08-30T05:13:25;14.60;99.90
4934;DHT22;2482;49.154;8.254;2023-08-30T05:15:52;14.60;99.90
4934;DHT22;2482;49.154;8.254;2023-08-30T05:18:19;14.60;99.90
4934;DHT22;2482;49.154;8.254;2023-08-30T05:20:46;14.70;99.90
4934;DHT22;2482;49.154;8.254;2023-08-30T05:23:13;14.70;99.90
4934;DHT22;2482;49.154;8.254;2023-08-30T05:25:40;14.70;99.90
4934;DHT22;2482;49.154;8.254;2023-08-30T05:28:07;14.70;99.90
4934;DHT22;2482;49.154;8.254;2023-08-30T05:30:35;14.60;99.90
4934;DHT22;2482;49.154;8.254;2023-08-30T05:33:02;14.60;99.90
4934;DHT22;2482;49.154;8.254;2023-08-30T05:35:29;14.60;99.90
4934;DHT22;2482;49.154;8.254;2023-08-30T05:37:56;14.60;99.90
4934;DHT22;2482;49.154;8.254;2023-08-30T05:40:23;14.60;99.90
4934;DHT22;2482;49.154;8.254;2023-08-30T05:42:51;14.70;99.90
4934;DHT22;2482;49.154;8.254;2023-08-30T05:45:20;14.80;99.90
4934;DHT22;2482;49.154;8.254;2023-08-30T05:47:47;14.80;99.90
4934;DHT22;2482;49.154;8.254;2023-08-30T05:50:15;14.80;99.90
4934;DHT22;2482;49.154;8.254;2023-08-30T05:52:44;14.90;99.90
4934;DHT22;2482;49.154;8.254;2023-08-30T05:55:11;14.90;99.90
4934;DHT22;2482;49.154;8.254;2023-08-30T05:57:38;15.00;99.90
4934;DHT22;2482;49.154;8.254;2023-08-30T06:00:06;15.00;99.90
4934;DHT22;2482;49.154;8.254;2023-08-30T06:02:35;15.00;99.90
4934;DHT22;2482;49.154;8.254;2023-08-30T06:05:02;15.00;99.90
4934;DHT22;2482;49.154;8.254;2023-08-30T06:07:29;15.10;99.90
4934;DHT22;2482;49.154;8.254;2023-08-30T06:09:56;15.10;99.90
4934;DHT22;2482;49.154;8.254;2023-08-30T06:12:25;15.00;99.90
4934;DHT22;2482;49.154;8.254;2023-08-30T06:14:52;14.90;99.90
4934;DHT22;2482;49.154;8.254;2023-08-30T06:17:20;14.90;99.90
4934;DHT22;2482;49.154;8.254;2023-08-30T06:19:47;14.90;99.90
4934;DHT22;2482;49.154;8.254;2023-08-30T06:22:14;14.90;99.90
4934;DHT22;2482;49.154;8.254;2023-08-30T06:24:41;14.90;99.90
4934;DHT22;2482;49.154;8.254;2023-08-30T06:27:08;14.90;99.90
4934;DHT22;2482;49.154;8.254;2023-08-30T06:29:35;15.00;99.90
4934;DHT22;2482;49.154;8.254;2023-08-30T06:32:03;15.10;99.90
4934;DHT22;2482;49.154;8.254;2023-08-30T06:34:31;15.20;99.90
4934;DHT22;2482;49.154;8.254;2023-08-30T06:36:58;15.30;99.90
4934;DHT22;2482;49.154;8.254;2023-08-30T06:39:25;15.40;99.90
4934;DHT22;2482;49.154;8.254;2023-08-30T06:41:52;15.40;99.90
4934;DHT22;2482;49.154;8.254;2023-08-30T06:44:19;15.30;99.90
4934;DHT22;2482;49.154;8.254;2023-08-30T06:46:46;15.30;99.90
4934;DHT22;2482;49.154;8.254;2023-08-30T06:49:13;15.30;99.90
4934;DHT22;2482;49.154;8.254;2023-08-30T06:51:40;15.30;99.90
4934;DHT22;2482;49.154;8.254;2023-08-30T06:54:07;15.30;99.90
4934;DHT22;2482;49.154;8.254;2023-08-30T06:56:45;15.30;99.90
4934;DHT22;2482;49.154;8.254;2023-08-30T06:59:23;15.40;99.90
4934;DHT22;2482;49.154;8.254;2023-08-30T07:01:50;15.50;99.90
4934;DHT22;2482;49.154;8.254;2023-08-30T07:04:17;15.40;99.90
4934;DHT22;2482;49.154;8.254;2023-08-30T07:06:44;15.50;99.90
4934;DHT22;2482;49.154;8.254;2023-08-30T07:09:11;15.80;99.90
4934;DHT22;2482;49.154;8.254;2023-08-30T07:11:38;16.00;99.90
4934;DHT22;2482;49.154;8.254;2023-08-30T07:14:05;16.10;99.90
4934;DHT22;2482;49.154;8.254;2023-08-30T07:16:32;16.20;99.90
4934;DHT22;2482;49.154;8.254;2023-08-30T07:18:59;16.30;99.90
4934;DHT22;2482;49.154;8.254;2023-08-30T07:21:28;16.40;99.90
4934;DHT22;2482;49.154;8.254;2023-08-30T07:23:55;16.60;99.90
4934;DHT22;2482;49.154;8.254;2023-08-30T07:26:22;16.70;99.90
4934;DHT22;2482;49.154;8.254;2023-08-30T07:28:49;16.70;99.90
4934;DHT22;2482;49.154;8.254;2023-08-30T07:31:16;16.80;99.90
4934;DHT22;2482;49.154;8.254;2023-08-30T07:33:45;17.00;99.90
4934;DHT22;2482;49.154;8.254;2023-08-30T07:36:12;17.00;99.90
4934;DHT22;2482;49.154;8.254;2023-08-30T07:38:39;16.80;99.90
4934;DHT22;2482;49.154;8.254;2023-08-30T07:41:07;16.80;99.90
4934;DHT22;2482;49.154;8.254;2023-08-30T07:43:36;16.70;99.90
4934;DHT22;2482;49.154;8.254;2023-08-30T07:46:03;16.70;99.90
4934;DHT22;2482;49.154;8.254;2023-08-30T07:48:30;16.70;99.90
4934;DHT22;2482;49.154;8.254;2023-08-30T07:50:57;16.80;99.90
4934;DHT22;2482;49.154;8.254;2023-08-30T07:53:24;16.90;99.90
4934;DHT22;2482;49.154;8.254;2023-08-30T07:55:51;16.80;99.90
4934;DHT22;2482;49.154;8.254;2023-08-30T07:58:20;16.70;99.90
4934;DHT22;2482;49.154;8.254;2023-08-30T08:00:51;16.70;99.90
4934;DHT22;2482;49.154;8.254;2023-08-30T08:03:21;17.00;99.90
4934;DHT22;2482;49.154;8.254;2023-08-30T08:05:48;17.20;99.90
4934;DHT22;2482;49.154;8.254;2023-08-30T08:08:15;17.00;99.90
4934;DHT22;2482;49.154;8.254;2023-08-30T08:10:43;16.90;99.90
4934;DHT22;2482;49.154;8.254;2023-08-30T08:13:10;17.00;99.90
4934;DHT22;2482;49.154;8.254;2023-08-30T08:15:39;16.90;99.90
4934;DHT22;2482;49.154;8.254;2023-08-30T08:18:07;16.90;99.90
4934;DHT22;2482;49.154;8.254;2023-08-30T08:20:34;17.10;99.90
4934;DHT22;2482;49.154;8.254;2023-08-30T08:23:03;17.20;99.90
4934;DHT22;2482;49.154;8.254;2023-08-30T08:25:30;17.40;99.90
4934;DHT22;2482;49.154;8.254;2023-08-30T08:27:57;17.70;99.90
4934;DHT22;2482;49.154;8.254;2023-08-30T08:30:24;17.80;99.90
4934;DHT22;2482;49.154;8.254;2023-08-30T08:32:51;17.90;99.90
4934;DHT22;2482;49.154;8.254;2023-08-30T08:35:18;17.90;99.90
4934;DHT22;2482;49.154;8.254;2023-08-30T08:37:46;17.80;99.90
4934;DHT22;2482;49.154;8.254;2023-08-30T08:40:13;17.50;99.90
4934;DHT22;2482;49.154;8.254;2023-08-30T08:42:42;17.50;99.90
4934;DHT22;2482;49.154;8.254;2023-08-30T08:45:10;17.60;99.90
4934;DHT22;2482;49.154;8.254;2023-08-30T08:47:38;17.90;99.90
4934;DHT22;2482;49.154;8.254;2023-08-30T08:50:06;18.10;99.90
4934;DHT22;2482;49.154;8.254;2023-08-30T08:52:34;17.90;99.90
4934;DHT22;2482;49.154;8.254;2023-08-30T08:55:20;18.10;99.90
4934;DHT22;2482;49.154;8.254;2023-08-30T08:57:48;18.20;99.90
4934;DHT22;2482;49.154;8.254;2023-08-30T09:00:15;18.10;99.90
4934;DHT22;2482;49.154;8.254;2023-08-30T09:02:45;18.10;99.90
4934;DHT22;2482;49.154;8.254;2023-08-30T09:05:13;18.10;99.90
4934;DHT22;2482;49.154;8.254;2023-08-30T09:07:42;18.10;99.90
4934;DHT22;2482;49.154;8.254;2023-08-30T09:10:10;18.30;99.90
4934;DHT22;2482;49.154;8.254;2023-08-30T09:12:37;18.50;99.90
4934;DHT22;2482;49.154;8.254;2023-08-30T09:15:04;18.60;99.90
4934;DHT22;2482;49.154;8.254;2023-08-30T09:17:38;18.80;99.90
4934;DHT22;2482;49.154;8.254;2023-08-30T09:20:10;18.70;99.90
4934;DHT22;2482;49.154;8.254;2023-08-30T09:22:39;18.70;99.90
4934;DHT22;2482;49.154;8.254;2023-08-30T09:25:11;18.70;99.90
4934;DHT22;2482;49.154;8.254;2023-08-30T09:27:56;18.80;99.90
4934;DHT22;2482;49.154;8.254;2023-08-30T09:30:25;18.60;99.90
4934;DHT22;2482;49.154;8.254;2023-08-30T09:32:53;18.60;99.90
4934;DHT22;2482;49.154;8.254;2023-08-30T09:35:20;18.40;99.90
4934;DHT22;2482;49.154;8.254;2023-08-30T09:37:47;18.50;99.90
4934;DHT22;2482;49.154;8.254;2023-08-30T09:40:18;18.50;99.90
4934;DHT22;2482;49.154;8.254;2023-08-30T09:42:46;18.50;99.90
4934;DHT22;2482;49.154;8.254;2023-08-30T09:45:30;18.70;99.90
4934;DHT22;2482;49.154;8.254;2023-08-30T09:47:57;18.80;99.90
4934;DHT22;2482;49.154;8.254;2023-08-30T09:50:29;19.10;99.90
4934;DHT22;2482;49.154;8.254;2023-08-30T09:53:06;19.20;99.90
4934;DHT22;2482;49.154;8.254;2023-08-30T09:55:35;19.40;99.90
4934;DHT22;2482;49.154;8.254;2023-08-30T09:58:03;19.30;99.90
4934;DHT22;2482;49.154;8.254;2023-08-30T10:00:33;19.30;99.90
4934;DHT22;2482;49.154;8.254;2023-08-30T10:03:00;19.20;99.90
4934;DHT22;2482;49.154;8.254;2023-08-30T10:05:48;19.20;99.90
4934;DHT22;2482;49.154;8.254;2023-08-30T10:08:15;19.20;99.90
4934;DHT22;2482;49.154;8.254;2023-08-30T10:10:43;19.60;99.90
4934;DHT22;2482;49.154;8.254;2023-08-30T10:13:11;20.00;99.90
4934;DHT22;2482;49.154;8.254;2023-08-30T10:15:42;20.00;99.90
4934;DHT22;2482;49.154;8.254;2023-08-30T10:18:15;20.00;99.90
4934;DHT22;2482;49.154;8.254;2023-08-30T10:20:47;20.30;99.90
4934;DHT22;2482;49.154;8.254;2023-08-30T10:23:17;20.50;99.90
4934;DHT22;2482;49.154;8.254;2023-08-30T10:25:45;20.60;99.90
4934;DHT22;2482;49.154;8.254;2023-08-30T10:28:15;20.60;99.90
4934;DHT22;2482;49.154;8.254;2023-08-30T10:30:44;21.10;99.90
4934;DHT22;2482;49.154;8.254;2023-08-30T10:33:14;21.30;99.90
4934;DHT22;2482;49.154;8.254;2023-08-30T10:35:49;21.60;99.90
4934;DHT22;2482;49.154;8.254;2023-08-30T10:38:25;21.70;99.90
4934;DHT22;2482;49.154;8.254;2023-08-30T10:40:55;21.50;99.90
4934;DHT22;2482;49.154;8.254;2023-08-30T10:43:34;21.60;99.90
4934;DHT22;2482;49.154;8.254;2023-08-30T10:46:03;21.50;99.90
4934;DHT22;2482;49.154;8.254;2023-08-30T10:48:40;21.70;99.90
4934;DHT22;2482;49.154;8.254;2023-08-30T10:51:35;21.30;99.90
4934;DHT22;2482;49.154;8.254;2023-08-30T10:54:17;21.40;99.90
4934;DHT22;2482;49.154;8.254;2023-08-30T10:59:22;21.50;99.90
4934;DHT22;2482;49.154;8.254;2023-08-30T11:01:50;21.70;99.90
4934;DHT22;2482;49.154;8.254;2023-08-30T11:04:22;22.00;99.90
4934;DHT22;2482;49.154;8.254;2023-08-30T11:06:51;21.70;99.90
4934;DHT22;2482;49.154;8.254;2023-08-30T11:09:23;21.70;99.90
4934;DHT22;2482;49.154;8.254;2023-08-30T11:11:51;22.10;99.90
4934;DHT22;2482;49.154;8.254;2023-08-30T11:14:18;22.00;99.90
4934;DHT22;2482;49.154;8.254;2023-08-30T11:16:46;22.30;99.90
4934;DHT22;2482;49.154;8.254;2023-08-30T11:19:13;22.20;99.90
4934;DHT22;2482;49.154;8.254;2023-08-30T11:21:43;22.00;99.90
4934;DHT22;2482;49.154;8.254;2023-08-30T11:24:11;22.30;99.90
4934;DHT22;2482;49.154;8.254;2023-08-30T11:26:39;22.50;99.90
4934;DHT22;2482;49.154;8.254;2023-08-30T11:29:07;22.50;99.90
4934;DHT22;2482;49.154;8.254;2023-08-30T11:31:34;22.70;99.90
4934;DHT22;2482;49.154;8.254;2023-08-30T11:34:02;22.80;99.90
4934;DHT22;2482;49.154;8.254;2023-08-30T11:36:31;22.60;99.90
4934;DHT22;2482;49.154;8.254;2023-08-30T11:38:59;22.20;99.90
4934;DHT22;2482;49.154;8.254;2023-08-30T11:41:26;21.80;99.90
4934;DHT22;2482;49.154;8.254;2023-08-30T11:43:54;22.00;99.90
4934;DHT22;2482;49.154;8.254;2023-08-30T11:46:21;22.40;99.90
4934;DHT22;2482;49.154;8.254;2023-08-30T11:48:50;22.80;99.90
4934;DHT22;2482;49.154;8.254;2023-08-30T11:51:18;22.40;99.90
4934;DHT22;2482;49.154;8.254;2023-08-30T11:53:46;22.00;99.90
4934;DHT22;2482;49.154;8.254;2023-08-30T11:56:13;22.00;99.90
4934;DHT22;2482;49.154;8.254;2023-08-30T11:58:40;21.90;99.90
4934;DHT22;2482;49.154;8.254;2023-08-30T12:01:08;22.00;99.90
4934;DHT22;2482;49.154;8.254;2023-08-30T12:03:35;22.20;99.90
4934;DHT22;2482;49.154;8.254;2023-08-30T12:06:09;22.30;99.90
4934;DHT22;2482;49.154;8.254;2023-08-30T12:08:39;22.30;99.90
4934;DHT22;2482;49.154;8.254;2023-08-30T12:11:16;22.30;99.90
4934;DHT22;2482;49.154;8.254;2023-08-30T12:13:44;22.70;99.90
4934;DHT22;2482;49.154;8.254;2023-08-30T12:16:15;22.90;99.90
4934;DHT22;2482;49.154;8.254;2023-08-30T12:18:45;22.90;99.90
4934;DHT22;2482;49.154;8.254;2023-08-30T12:21:14;22.90;99.90
4934;DHT22;2482;49.154;8.254;2023-08-30T12:23:42;22.70;99.90
4934;DHT22;2482;49.154;8.254;2023-08-30T12:26:10;22.70;99.90
4934;DHT22;2482;49.154;8.254;2023-08-30T12:28:39;22.90;99.90
4934;DHT22;2482;49.154;8.254;2023-08-30T12:31:07;23.20;99.90
4934;DHT22;2482;49.154;8.254;2023-08-30T12:33:35;23.30;99.90
4934;DHT22;2482;49.154;8.254;2023-08-30T12:36:03;23.40;99.90
4934;DHT22;2482;49.154;8.254;2023-08-30T12:38:30;23.50;99.90
4934;DHT22;2482;49.154;8.254;2023-08-30T12:40:57;23.50;99.90
4934;DHT22;2482;49.154;8.254;2023-08-30T12:43:24;23.30;99.90
4934;DHT22;2482;49.154;8.254;2023-08-30T12:45:51;22.90;99.90
4934;DHT22;2482;49.154;8.254;2023-08-30T12:48:19;23.00;99.90
4934;DHT22;2482;49.154;8.254;2023-08-30T12:50:49;23.10;99.90
4934;DHT22;2482;49.154;8.254;2023-08-30T12:53:16;23.00;99.90
4934;DHT22;2482;49.154;8.254;2023-08-30T12:55:45;23.00;99.90
4934;DHT22;2482;49.154;8.254;2023-08-30T12:58:12;23.10;99.90
4934;DHT22;2482;49.154;8.254;2023-08-30T13:00:40;23.20;99.90
4934;DHT22;2482;49.154;8.254;2023-08-30T13:03:08;23.50;99.90
4934;DHT22;2482;49.154;8.254;2023-08-30T13:05:35;23.50;99.90
4934;DHT22;2482;49.154;8.254;2023-08-30T13:08:03;22.90;99.90
4934;DHT22;2482;49.154;8.254;2023-08-30T13:10:30;23.00;99.90
4934;DHT22;2482;49.154;8.254;2023-08-30T13:12:57;23.00;99.90
4934;DHT22;2482;49.154;8.254;2023-08-30T13:15:24;23.10;99.90
4934;DHT22;2482;49.154;8.254;2023-08-30T13:17:51;22.90;99.90
4934;DHT22;2482;49.154;8.254;2023-08-30T13:20:19;22.70;99.90
4934;DHT22;2482;49.154;8.254;2023-08-30T13:22:46;22.40;99.90
4934;DHT22;2482;49.154;8.254;2023-08-30T13:25:13;22.20;99.90
4934;DHT22;2482;49.154;8.254;2023-08-30T13:27:40;22.30;99.90
4934;DHT22;2482;49.154;8.254;2023-08-30T13:30:07;22.30;99.90
4934;DHT22;2482;49.154;8.254;2023-08-30T13:32:34;22.60;99.90
4934;DHT22;2482;49.154;8.254;2023-08-30T13:35:01;23.00;99.90
4934;DHT22;2482;49.154;8.254;2023-08-30T13:37:29;23.20;99.90
4934;DHT22;2482;49.154;8.254;2023-08-30T13:39:56;23.40;99.90
4934;DHT22;2482;49.154;8.254;2023-08-30T13:42:23;23.60;99.90
4934;DHT22;2482;49.154;8.254;2023-08-30T13:44:50;23.40;99.90
4934;DHT22;2482;49.154;8.254;2023-08-30T13:47:18;23.30;99.90
4934;DHT22;2482;49.154;8.254;2023-08-30T13:49:46;23.50;99.90
4934;DHT22;2482;49.154;8.254;2023-08-30T13:52:13;23.40;99.90
4934;DHT22;2482;49.154;8.254;2023-08-30T13:54:40;23.30;99.90
4934;DHT22;2482;49.154;8.254;2023-08-30T13:57:07;23.40;99.90
4934;DHT22;2482;49.154;8.254;2023-08-30T13:59:35;23.40;99.90
4934;DHT22;2482;49.154;8.254;2023-08-30T14:02:03;23.20;99.90
4934;DHT22;2482;49.154;8.254;2023-08-30T14:04:31;23.00;99.90
4934;DHT22;2482;49.154;8.254;2023-08-30T14:07:04;22.70;99.90
4934;DHT22;2482;49.154;8.254;2023-08-30T14:09:31;22.70;99.90
4934;DHT22;2482;49.154;8.254;2023-08-30T14:11:58;22.90;99.90
4934;DHT22;2482;49.154;8.254;2023-08-30T14:14:25;23.20;99.90
4934;DHT22;2482;49.154;8.254;2023-08-30T14:16:53;23.30;99.90
4934;DHT22;2482;49.154;8.254;2023-08-30T14:19:20;23.10;99.90
4934;DHT22;2482;49.154;8.254;2023-08-30T14:21:47;23.20;99.90
4934;DHT22;2482;49.154;8.254;2023-08-30T14:24:14;23.40;99.90
4934;DHT22;2482;49.154;8.254;2023-08-30T14:26:41;23.40;99.90
4934;DHT22;2482;49.154;8.254;2023-08-30T14:29:08;23.40;99.90
4934;DHT22;2482;49.154;8.254;2023-08-30T14:31:35;23.40;99.90
4934;DHT22;2482;49.154;8.254;2023-08-30T14:34:02;23.30;99.90
4934;DHT22;2482;49.154;8.254;2023-08-30T14:36:29;23.30;99.30
4934;DHT22;2482;49.154;8.254;2023-08-30T14:38:56;23.30;98.60
4934;DHT22;2482;49.154;8.254;2023-08-30T14:41:23;23.30;99.00
4934;DHT22;2482;49.154;8.254;2023-08-30T14:43:50;23.40;99.70
4934;DHT22;2482;49.154;8.254;2023-08-30T14:46:17;23.50;99.90
4934;DHT22;2482;49.154;8.254;2023-08-30T14:48:50;23.60;99.80
4934;DHT22;2482;49.154;8.254;2023-08-30T14:51:17;23.20;99.70
4934;DHT22;2482;49.154;8.254;2023-08-30T14:53:44;23.20;99.30
4934;DHT22;2482;49.154;8.254;2023-08-30T14:56:11;23.00;99.50
4934;DHT22;2482;49.154;8.254;2023-08-30T14:58:38;22.90;99.90
4934;DHT22;2482;49.154;8.254;2023-08-30T15:01:05;22.90;99.90
4934;DHT22;2482;49.154;8.254;2023-08-30T15:03:32;22.80;99.90
4934;DHT22;2482;49.154;8.254;2023-08-30T15:06:00;22.90;99.90
4934;DHT22;2482;49.154;8.254;2023-08-30T15:08:27;23.00;99.90
4934;DHT22;2482;49.154;8.254;2023-08-30T15:10:56;22.80;99.90
4934;DHT22;2482;49.154;8.254;2023-08-30T15:13:24;22.90;99.90
4934;DHT22;2482;49.154;8.254;2023-08-30T15:15:51;22.90;99.90
4934;DHT22;2482;49.154;8.254;2023-08-30T15:18:18;22.90;99.90
4934;DHT22;2482;49.154;8.254;2023-08-30T15:20:46;22.90;99.90
4934;DHT22;2482;49.154;8.254;2023-08-30T15:23:14;22.90;99.90
4934;DHT22;2482;49.154;8.254;2023-08-30T15:25:45;23.00;99.90
4934;DHT22;2482;49.154;8.254;2023-08-30T15:28:16;23.10;99.90
4934;DHT22;2482;49.154;8.254;2023-08-30T15:30:44;23.10;99.90
4934;DHT22;2482;49.154;8.254;2023-08-30T15:33:12;23.20;99.90
4934;DHT22;2482;49.154;8.254;2023-08-30T15:35:46;22.80;99.90
4934;DHT22;2482;49.154;8.254;2023-08-30T15:38:13;22.70;99.90
4934;DHT22;2482;49.154;8.254;2023-08-30T15:40:41;22.80;99.90
4934;DHT22;2482;49.154;8.254;2023-08-30T15:43:09;22.70;99.90
4934;DHT22;2482;49.154;8.254;2023-08-30T15:45:36;22.50;99.90
4934;DHT22;2482;49.154;8.254;2023-08-30T15:48:04;22.50;99.90
4934;DHT22;2482;49.154;8.254;2023-08-30T15:50:32;22.50;99.90
4934;DHT22;2482;49.154;8.254;2023-08-30T15:53:00;22.50;99.90
4934;DHT22;2482;49.154;8.254;2023-08-30T15:55:27;22.50;99.90
4934;DHT22;2482;49.154;8.254;2023-08-30T15:57:55;22.40;99.90
4934;DHT22;2482;49.154;8.254;2023-08-30T16:00:23;22.60;99.90
4934;DHT22;2482;49.154;8.254;2023-08-30T16:02:50;22.60;99.90
4934;DHT22;2482;49.154;8.254;2023-08-30T16:05:21;22.50;99.90
4934;DHT22;2482;49.154;8.254;2023-08-30T16:07:48;22.40;99.90
4934;DHT22;2482;49.154;8.254;2023-08-30T16:10:16;22.30;99.90
4934;DHT22;2482;49.154;8.254;2023-08-30T16:12:43;22.20;99.90
4934;DHT22;2482;49.154;8.254;2023-08-30T16:15:10;21.90;99.90